Time;durP1;ratioP1;P1;durP2;ratioP2;P2;SDS_P1;SDS_P2;PMS_P1;PMS_P2;Temp;Humidity;BMP_temperature;BMP_pressure;BME280_temperature;BME280_humidity;BME280_pressure;Samples;Min_cycle;Max_cycle;Signal;HPM_P1;HPM_P2
2023/06/25 00:01:48;;;;;;;3.93;3.43;;;16.70;99.90;;;;;;5076097;28;20475;-92
2023/06/25 00:04:15;;;;;;;4.00;3.37;;;16.70;99.90;;;;;;5060908;28;20456;-92
2023/06/25 00:06:42;;;;;;;3.73;2.90;;;16.60;99.90;;;;;;5060671;28;20849;-92
2023/06/25 00:09:09;;;;;;;4.40;3.77;;;16.60;99.90;;;;;;5060484;28;20458;-93
2023/06/25 00:11:35;;;;;;;3.77;3.33;;;16.60;99.90;;;;;;5061611;28;20460;-93
2023/06/25 00:14:04;;;;;;;5.13;4.07;;;16.60;99.90;;;;;;5061617;28;20456;-91
2023/06/25 00:16:33;;;;;;;4.73;4.03;;;16.50;99.90;;;;;;5062369;28;21094;-92
2023/06/25 00:19:00;;;;;;;4.63;3.77;;;16.50;99.90;;;;;;5062700;28;20462;-92
2023/06/25 00:21:27;;;;;;;4.50;3.77;;;16.50;99.90;;;;;;5062014;28;20484;-92
2023/06/25 00:23:54;;;;;;;4.67;3.83;;;16.40;99.90;;;;;;5063006;28;20460;-93
2023/06/25 00:26:20;;;;;;;4.73;4.30;;;16.40;99.90;;;;;;5061164;28;20490;-91
2023/06/25 00:28:47;;;;;;;4.40;3.80;;;16.40;99.90;;;;;;5062161;28;20491;-92
2023/06/25 00:31:15;;;;;;;4.60;3.87;;;16.30;99.90;;;;;;5062255;28;20483;-90
2023/06/25 00:33:43;;;;;;;3.77;3.40;;;16.30;99.90;;;;;;5062554;28;20452;-92
2023/06/25 00:36:10;;;;;;;3.67;3.33;;;16.30;99.90;;;;;;5062254;28;20461;-93
2023/06/25 00:38:38;;;;;;;3.97;3.03;;;16.20;99.90;;;;;;5062702;28;20515;-93
2023/06/25 00:41:07;;;;;;;5.03;3.47;;;16.20;99.90;;;;;;5062359;28;20546;-93
2023/06/25 00:43:34;;;;;;;4.13;3.60;;;16.20;99.90;;;;;;5062752;28;20459;-93
2023/06/25 00:46:01;;;;;;;4.80;3.83;;;16.10;99.90;;;;;;5060458;28;20463;-92
2023/06/25 00:48:30;;;;;;;3.73;3.33;;;16.10;99.90;;;;;;5061604;28;20460;-92
2023/06/25 00:51:01;;;;;;;4.43;4.00;;;16.00;99.90;;;;;;5062016;28;20455;-93
2023/06/25 00:53:30;;;;;;;4.33;3.57;;;16.00;99.90;;;;;;5061713;28;20463;-93
2023/06/25 00:55:57;;;;;;;4.63;3.97;;;16.00;99.90;;;;;;5060391;28;20485;-91
2023/06/25 00:58:24;;;;;;;4.10;3.70;;;16.00;99.90;;;;;;5060360;28;20467;-92
2023/06/25 01:00:54;;;;;;;4.40;4.00;;;16.00;99.90;;;;;;5061886;28;20476;-93
2023/06/25 01:03:27;;;;;;;4.20;3.80;;;15.90;99.90;;;;;;5061850;28;20463;-92
2023/06/25 01:06:03;;;;;;;4.20;3.67;;;15.90;99.90;;;;;;5061362;28;20460;-92
2023/06/25 01:08:30;;;;;;;4.70;4.13;;;15.90;99.90;;;;;;5060100;28;20464;-93
2023/06/25 01:10:57;;;;;;;4.73;3.67;;;15.90;99.90;;;;;;5061543;28;20555;-92
2023/06/25 01:13:24;;;;;;;4.20;3.80;;;15.90;99.90;;;;;;5061792;28;20485;-92
2023/06/25 01:15:51;;;;;;;5.43;3.80;;;15.90;99.90;;;;;;5061420;28;20461;-91
2023/06/25 01:18:18;;;;;;;4.00;3.63;;;15.80;99.90;;;;;;5065055;28;20470;-92
2023/06/25 01:20:45;;;;;;;3.67;3.27;;;15.80;99.90;;;;;;5067037;28;20482;-93
2023/06/25 01:23:13;;;;;;;3.70;3.40;;;15.80;99.90;;;;;;5064504;28;20948;-92
2023/06/25 01:25:40;;;;;;;4.03;3.63;;;15.80;99.90;;;;;;5060450;28;20460;-92
2023/06/25 01:28:07;;;;;;;3.90;3.47;;;15.80;99.90;;;;;;5060588;28;20494;-93
2023/06/25 01:30:34;;;;;;;4.10;3.70;;;15.80;99.90;;;;;;5061196;28;20967;-92
2023/06/25 01:33:00;;;;;;;4.33;3.93;;;15.70;99.90;;;;;;5059924;28;20464;-92
2023/06/25 01:35:27;;;;;;;4.23;3.83;;;15.70;99.90;;;;;;5058852;28;20466;-90
2023/06/25 01:37:55;;;;;;;4.40;4.00;;;15.70;99.90;;;;;;5059607;28;20483;-93
2023/06/25 01:40:24;;;;;;;6.90;4.30;;;15.60;99.90;;;;;;5059857;28;20448;-93
2023/06/25 01:42:52;;;;;;;4.53;4.07;;;15.60;99.90;;;;;;5059388;28;20455;-92
2023/06/25 01:45:19;;;;;;;4.87;4.37;;;15.60;99.90;;;;;;5058001;28;20495;-92
2023/06/25 01:47:46;;;;;;;4.23;3.83;;;15.60;99.90;;;;;;5058489;28;20483;-92
2023/06/25 01:50:13;;;;;;;4.23;3.83;;;15.60;99.90;;;;;;5058628;28;20463;-93
2023/06/25 01:52:39;;;;;;;5.00;3.70;;;15.50;99.90;;;;;;5059635;28;20471;-92
2023/06/25 01:55:07;;;;;;;4.27;3.87;;;15.50;99.90;;;;;;5057913;28;20463;-92
2023/06/25 01:57:35;;;;;;;4.90;4.13;;;15.50;99.90;;;;;;5059085;28;20483;-93
2023/06/25 02:00:04;;;;;;;4.40;4.00;;;15.40;99.90;;;;;;5064723;28;20455;-93
2023/06/25 02:02:30;;;;;;;4.30;3.80;;;15.40;99.90;;;;;;5071545;28;20888;-93
2023/06/25 02:04:57;;;;;;;4.07;3.70;;;15.40;99.90;;;;;;5058817;28;20463;-91
2023/06/25 02:07:24;;;;;;;4.10;3.70;;;15.40;99.90;;;;;;5057606;28;20479;-93
2023/06/25 02:09:51;;;;;;;4.33;3.93;;;15.30;99.90;;;;;;5059012;28;20464;-93
2023/06/25 02:12:18;;;;;;;3.93;3.40;;;15.30;99.90;;;;;;5058860;28;20509;-93
2023/06/25 02:14:46;;;;;;;6.03;4.40;;;15.30;99.90;;;;;;5057954;28;20467;-92
2023/06/25 02:17:12;;;;;;;3.87;3.57;;;15.30;99.90;;;;;;5058412;28;20484;-92
2023/06/25 02:19:39;;;;;;;4.00;3.60;;;15.20;99.90;;;;;;5059319;28;20474;-92
2023/06/25 02:22:06;;;;;;;4.60;3.57;;;15.20;99.90;;;;;;5058486;28;20483;-93
2023/06/25 02:24:33;;;;;;;5.90;4.50;;;15.20;99.90;;;;;;5060776;28;20464;-92
2023/06/25 02:27:00;;;;;;;4.80;4.40;;;15.20;99.90;;;;;;5059538;28;20471;-92
2023/06/25 02:29:26;;;;;;;4.83;4.33;;;15.20;99.90;;;;;;5059925;28;20470;-93
2023/06/25 02:31:55;;;;;;;5.03;4.47;;;15.10;99.90;;;;;;5062175;28;20464;-92
2023/06/25 02:34:21;;;;;;;4.03;3.47;;;15.10;99.90;;;;;;5062205;28;20459;-93
2023/06/25 02:36:50;;;;;;;4.43;3.80;;;15.10;99.90;;;;;;5062823;28;20481;-92
2023/06/25 02:39:17;;;;;;;3.93;3.60;;;15.00;99.90;;;;;;5063879;28;20462;-93
2023/06/25 02:41:43;;;;;;;4.70;3.90;;;15.00;99.90;;;;;;5066092;28;20515;-92
2023/06/25 02:44:10;;;;;;;4.93;4.00;;;15.00;99.90;;;;;;5065244;28;20452;-93
2023/06/25 02:46:37;;;;;;;4.63;3.93;;;15.00;99.90;;;;;;5077156;28;20469;-94
2023/06/25 02:49:05;;;;;;;5.23;4.30;;;15.00;99.90;;;;;;5064640;28;20447;-93
2023/06/25 02:51:32;;;;;;;4.17;3.77;;;14.90;99.90;;;;;;5065025;28;20459;-93
2023/06/25 02:53:59;;;;;;;4.50;4.10;;;14.90;99.90;;;;;;5064752;28;20463;-94
2023/06/25 02:56:25;;;;;;;4.53;4.13;;;14.90;99.90;;;;;;5063206;28;20483;-92
2023/06/25 02:58:52;;;;;;;5.23;4.30;;;14.90;99.90;;;;;;5064082;28;20470;-93
2023/06/25 03:01:19;;;;;;;5.57;4.77;;;14.90;99.90;;;;;;5063305;28;20479;-92
2023/06/25 03:03:46;;;;;;;4.10;3.70;;;14.90;99.90;;;;;;5065515;28;20535;-94
2023/06/25 03:06:14;;;;;;;4.00;3.60;;;14.80;99.90;;;;;;5064394;28;20476;-93
2023/06/25 03:08:41;;;;;;;5.10;4.00;;;14.80;99.90;;;;;;5064490;28;20467;-92
2023/06/25 03:11:07;;;;;;;5.93;3.73;;;14.80;99.90;;;;;;5064225;28;20455;-94
2023/06/25 03:13:34;;;;;;;5.17;4.10;;;14.80;99.90;;;;;;5064036;28;20462;-93
2023/06/25 03:16:01;;;;;;;4.30;3.90;;;14.70;99.90;;;;;;5063534;28;20464;-92
2023/06/25 03:18:28;;;;;;;5.03;4.03;;;14.70;99.90;;;;;;5064179;28;20463;-93
2023/06/25 03:20:55;;;;;;;4.20;3.80;;;14.70;99.90;;;;;;5071869;28;20818;-94
2023/06/25 03:23:23;;;;;;;5.00;3.67;;;14.70;99.90;;;;;;5063124;28;20463;-93
2023/06/25 03:25:50;;;;;;;5.10;4.13;;;14.70;99.90;;;;;;5063893;28;20463;-93
2023/06/25 03:28:16;;;;;;;4.53;4.13;;;14.70;99.90;;;;;;5063766;28;20487;-93
2023/06/25 03:30:46;;;;;;;4.43;4.03;;;14.60;99.90;;;;;;5063475;28;20459;-92
2023/06/25 03:33:13;;;;;;;4.20;3.80;;;14.70;99.90;;;;;;5062973;28;20469;-93
2023/06/25 03:35:39;;;;;;;4.40;4.00;;;14.60;99.90;;;;;;5063187;28;20459;-92
2023/06/25 03:38:06;;;;;;;4.70;4.30;;;14.60;99.90;;;;;;5063612;28;20489;-93
2023/06/25 03:40:34;;;;;;;4.93;3.90;;;14.60;99.90;;;;;;5063465;28;20451;-92
2023/06/25 03:43:01;;;;;;;4.70;4.20;;;14.60;99.90;;;;;;5062767;28;20502;-92
2023/06/25 03:45:28;;;;;;;5.53;5.03;;;14.60;99.90;;;;;;5064597;28;20459;-93
2023/06/25 03:47:55;;;;;;;6.97;4.23;;;14.60;99.90;;;;;;5091606;22;20554;-95
2023/06/25 03:50:22;;;;;;;6.00;4.70;;;14.60;99.90;;;;;;5078468;28;20459;-96
2023/06/25 03:52:48;;;;;;;5.27;4.57;;;14.50;99.90;;;;;;5078059;28;20708;-96
2023/06/25 03:55:16;;;;;;;4.03;3.53;;;14.50;99.90;;;;;;5078251;28;20450;-96
2023/06/25 03:57:45;;;;;;;3.80;3.50;;;14.60;99.90;;;;;;5089543;28;20502;-96
2023/06/25 04:00:13;;;;;;;5.22;4.55;;;14.60;99.90;;;;;;5094142;28;20461;-94
2023/06/25 04:02:40;;;;;;;3.93;3.53;;;14.60;99.90;;;;;;5090277;28;20224;-95
2023/06/25 04:05:18;;;;;;;4.73;3.57;;;14.60;99.90;;;;;;5097543;28;20505;-96
2023/06/25 04:07:45;;;;;;;4.30;3.60;;;14.60;99.90;;;;;;5101459;22;20485;-73
2023/06/25 04:10:12;;;;;;;4.80;4.07;;;14.60;99.90;;;;;;5051615;28;20468;-71
2023/06/25 04:12:39;;;;;;;5.13;4.43;;;14.60;99.90;;;;;;5051369;28;20497;-72
2023/06/25 04:15:08;;;;;;;4.63;4.20;;;14.70;99.90;;;;;;5050670;28;20474;-73
2023/06/25 04:17:35;;;;;;;3.90;3.50;;;14.70;99.90;;;;;;5062506;28;20940;-72
2023/06/25 04:20:02;;;;;;;5.60;4.07;;;14.70;99.90;;;;;;5071132;28;20537;-74
2023/06/25 04:22:28;;;;;;;4.93;4.43;;;14.70;99.90;;;;;;5071279;28;20566;-73
2023/06/25 04:24:55;;;;;;;4.13;3.60;;;14.70;99.90;;;;;;5071035;28;20469;-74
2023/06/25 04:27:22;;;;;;;5.37;4.30;;;14.80;99.90;;;;;;5070913;28;20489;-73
2023/06/25 04:29:48;;;;;;;4.00;3.60;;;14.80;99.90;;;;;;5070901;28;20462;-74
2023/06/25 04:32:16;;;;;;;5.30;4.47;;;14.80;99.90;;;;;;5071255;28;20840;-74
2023/06/25 04:34:43;;;;;;;4.33;3.93;;;14.90;99.90;;;;;;5070587;28;20466;-73
2023/06/25 04:37:10;;;;;;;5.17;4.67;;;14.90;99.90;;;;;;5070549;28;20489;-74
2023/06/25 04:39:36;;;;;;;4.90;4.37;;;14.90;99.90;;;;;;5070386;28;20451;-74
2023/06/25 04:42:04;;;;;;;4.77;4.10;;;15.00;99.90;;;;;;5068177;28;20485;-73
2023/06/25 04:44:30;;;;;;;3.77;3.47;;;15.00;99.90;;;;;;5070440;28;20462;-73
2023/06/25 04:46:57;;;;;;;4.23;3.83;;;15.10;99.90;;;;;;5070340;28;20474;-73
2023/06/25 04:49:25;;;;;;;5.20;4.57;;;15.10;99.90;;;;;;5070465;28;20458;-72
2023/06/25 04:51:52;;;;;;;4.37;3.97;;;15.20;99.90;;;;;;5069724;28;21107;-73
2023/06/25 04:54:18;;;;;;;4.73;4.00;;;15.20;99.90;;;;;;5065835;28;20458;-73
2023/06/25 04:56:45;;;;;;;4.63;3.90;;;15.30;99.90;;;;;;5070042;28;21009;-73
2023/06/25 04:59:12;;;;;;;5.00;4.50;;;15.30;99.90;;;;;;5070145;28;20470;-73
2023/06/25 05:01:39;;;;;;;4.37;3.97;;;15.40;99.90;;;;;;5070330;28;20856;-72
2023/06/25 05:04:05;;;;;;;5.47;4.17;;;15.50;99.90;;;;;;5070103;28;20832;-73
2023/06/25 05:06:33;;;;;;;7.00;4.70;;;15.60;99.90;;;;;;5069701;28;20486;-73
2023/06/25 05:09:00;;;;;;;4.93;4.40;;;15.60;99.90;;;;;;5069684;28;20462;-73
2023/06/25 05:11:27;;;;;;;5.00;4.50;;;15.70;99.90;;;;;;5072283;28;20968;-73
2023/06/25 05:13:54;;;;;;;5.20;4.37;;;15.80;99.90;;;;;;5070681;28;20459;-73
2023/06/25 05:16:20;;;;;;;5.83;3.83;;;15.90;99.90;;;;;;5069373;28;20969;-73
2023/06/25 05:18:47;;;;;;;4.60;4.10;;;16.00;99.90;;;;;;5069590;28;20462;-73
2023/06/25 05:21:14;;;;;;;4.30;3.90;;;16.10;99.90;;;;;;5069920;28;20902;-73
2023/06/25 05:23:44;;;;;;;6.23;4.40;;;16.20;99.90;;;;;;5069424;28;20478;-74
2023/06/25 05:26:11;;;;;;;5.40;4.80;;;16.30;99.90;;;;;;5066424;28;20532;-74
2023/06/25 05:28:38;;;;;;;4.07;3.67;;;16.30;99.90;;;;;;5053433;28;20843;-74
2023/06/25 05:31:06;;;;;;;5.37;4.00;;;16.40;99.90;;;;;;5069555;28;20477;-74
2023/06/25 05:33:33;;;;;;;4.57;4.10;;;16.50;99.90;;;;;;5069892;28;20462;-74
2023/06/25 05:36:00;;;;;;;5.17;4.20;;;16.70;99.90;;;;;;5069273;28;20465;-74
2023/06/25 05:38:26;;;;;;;4.03;3.63;;;16.70;99.90;;;;;;5069418;28;20502;-73
2023/06/25 05:40:54;;;;;;;4.70;4.10;;;16.80;99.90;;;;;;5069417;28;20463;-73
2023/06/25 05:43:21;;;;;;;4.37;3.97;;;16.90;99.90;;;;;;5069468;28;20487;-74
2023/06/25 05:45:48;;;;;;;4.53;4.13;;;17.00;99.90;;;;;;5066303;28;20458;-74
2023/06/25 05:48:15;;;;;;;4.10;3.70;;;17.20;99.90;;;;;;5049347;28;20491;-74
2023/06/25 05:50:41;;;;;;;5.10;3.83;;;17.30;99.90;;;;;;5067185;28;20459;-74
2023/06/25 05:53:08;;;;;;;4.23;3.60;;;17.40;99.90;;;;;;5069730;28;20469;-74
2023/06/25 05:55:35;;;;;;;3.77;3.47;;;17.50;99.90;;;;;;5068982;28;20488;-74
2023/06/25 05:58:03;;;;;;;3.77;3.40;;;17.60;99.90;;;;;;5069391;28;20861;-73
2023/06/25 06:00:30;;;;;;;3.97;3.57;;;17.60;99.90;;;;;;5069509;28;20532;-74
2023/06/25 06:02:57;;;;;;;5.10;3.90;;;17.70;99.90;;;;;;5068912;28;20486;-74
2023/06/25 06:05:23;;;;;;;4.60;3.73;;;17.80;99.90;;;;;;5072803;28;20965;-74
2023/06/25 06:07:50;;;;;;;4.27;3.87;;;17.80;99.90;;;;;;5073300;28;20481;-74
2023/06/25 06:10:17;;;;;;;3.83;3.50;;;17.90;99.90;;;;;;5073737;28;20481;-74
2023/06/25 06:12:44;;;;;;;5.67;3.80;;;18.00;99.90;;;;;;5073079;28;20835;-74
2023/06/25 06:15:12;;;;;;;4.17;3.40;;;18.10;99.90;;;;;;5073285;28;20824;-72
2023/06/25 06:17:39;;;;;;;7.10;3.47;;;18.20;99.90;;;;;;5072338;28;20509;-72
2023/06/25 06:20:07;;;;;;;4.80;3.90;;;18.30;99.90;;;;;;5073856;28;20468;-74
2023/06/25 06:22:33;;;;;;;4.13;3.43;;;18.40;99.90;;;;;;5072324;28;20488;-74
2023/06/25 06:25:00;;;;;;;6.13;3.97;;;18.50;99.90;;;;;;5064744;28;20827;-72
2023/06/25 06:27:27;;;;;;;4.27;3.87;;;18.60;99.90;;;;;;5071326;28;20486;-74
2023/06/25 06:29:53;;;;;;;5.37;4.80;;;18.70;99.90;;;;;;5073021;28;20959;-73
2023/06/25 06:32:21;;;;;;;4.50;3.40;;;18.80;99.90;;;;;;5072892;28;20480;-73
2023/06/25 06:34:48;;;;;;;4.10;3.70;;;19.00;99.90;;;;;;5072748;28;20463;-74
2023/06/25 06:37:15;;;;;;;4.27;3.87;;;19.10;99.90;;;;;;5072855;28;20857;-74
2023/06/25 06:39:41;;;;;;;3.97;3.27;;;19.20;99.90;;;;;;5072900;28;20468;-74
2023/06/25 06:42:08;;;;;;;4.10;3.70;;;19.30;99.90;;;;;;5071729;28;20486;-73
2023/06/25 06:44:35;;;;;;;4.30;3.90;;;19.40;99.90;;;;;;5074599;28;20555;-73
2023/06/25 06:47:01;;;;;;;4.53;3.10;;;19.60;99.90;;;;;;5066798;28;20567;-74
2023/06/25 06:49:29;;;;;;;5.27;3.60;;;19.70;99.90;;;;;;5073656;28;20457;-74
2023/06/25 06:51:56;;;;;;;5.57;4.07;;;19.80;99.90;;;;;;5072488;28;20470;-74
2023/06/25 06:54:23;;;;;;;4.10;3.40;;;19.90;99.90;;;;;;5073068;28;20461;-74
2023/06/25 06:56:50;;;;;;;4.33;3.93;;;20.00;99.90;;;;;;5070323;28;20486;-74
2023/06/25 06:59:16;;;;;;;4.50;3.43;;;20.10;99.90;;;;;;5073115;28;20462;-74
2023/06/25 07:01:43;;;;;;;4.50;3.73;;;20.20;99.90;;;;;;5072421;28;20471;-74
2023/06/25 07:04:10;;;;;;;4.33;3.93;;;20.30;99.90;;;;;;5072805;28;20470;-74
2023/06/25 07:06:38;;;;;;;3.80;3.47;;;20.30;99.90;;;;;;5071410;28;20482;-74
2023/06/25 07:09:04;;;;;;;4.23;3.37;;;20.40;99.90;;;;;;5064465;28;20484;-74
2023/06/25 07:11:31;;;;;;;3.50;3.20;;;20.50;99.90;;;;;;5072532;28;20980;-74
2023/06/25 07:13:58;;;;;;;4.90;4.10;;;20.70;99.90;;;;;;5071859;28;20492;-73
2023/06/25 07:16:24;;;;;;;4.77;4.27;;;20.80;99.90;;;;;;5071150;28;20468;-74
2023/06/25 07:18:51;;;;;;;3.93;3.53;;;20.90;99.90;;;;;;5072042;28;20451;-74
2023/06/25 07:21:18;;;;;;;5.00;3.70;;;21.00;99.90;;;;;;5072535;28;20459;-72
2023/06/25 07:23:46;;;;;;;4.33;3.90;;;21.10;99.90;;;;;;5070861;28;20498;-72
2023/06/25 07:26:13;;;;;;;4.30;3.90;;;21.20;99.90;;;;;;5071472;28;20466;-73
2023/06/25 07:28:39;;;;;;;3.83;3.30;;;21.30;99.90;;;;;;5071261;28;20463;-72
2023/06/25 07:31:06;;;;;;;4.40;3.83;;;21.40;99.90;;;;;;5071771;28;20459;-72
2023/06/25 07:33:33;;;;;;;4.30;3.53;;;21.50;99.90;;;;;;5071848;28;20459;-72
2023/06/25 07:35:59;;;;;;;3.90;3.50;;;21.60;99.90;;;;;;5071308;28;20465;-72
2023/06/25 07:38:26;;;;;;;4.33;3.27;;;21.70;99.90;;;;;;5071325;28;20866;-72
2023/06/25 07:40:54;;;;;;;4.30;3.90;;;21.80;99.90;;;;;;5071504;28;20466;-73
2023/06/25 07:43:21;;;;;;;4.47;3.43;;;21.90;99.90;;;;;;5071537;28;20484;-73
2023/06/25 07:45:47;;;;;;;4.10;3.23;;;22.00;99.90;;;;;;5071070;28;20467;-72
2023/06/25 07:48:14;;;;;;;4.77;3.90;;;22.00;99.90;;;;;;5070646;28;20491;-72
2023/06/25 07:50:41;;;;;;;4.23;3.40;;;22.10;99.90;;;;;;5071475;28;20953;-72
2023/06/25 07:53:07;;;;;;;3.80;3.50;;;22.20;99.90;;;;;;5071087;28;20467;-72
2023/06/25 07:55:40;;;;;;;4.30;3.60;;;22.30;99.90;;;;;;5071104;28;20468;-72
2023/06/25 07:58:09;;;;;;;4.90;3.70;;;22.40;99.90;;;;;;5071167;28;20484;-72
2023/06/25 08:00:36;;;;;;;3.60;3.30;;;22.40;99.30;;;;;;5070909;28;20488;-71
2023/06/25 08:03:03;;;;;;;4.30;3.80;;;22.50;99.80;;;;;;5070195;28;20489;-71
2023/06/25 08:05:29;;;;;;;4.97;3.87;;;22.60;99.90;;;;;;5070674;28;20532;-72
2023/06/25 08:07:57;;;;;;;5.07;3.87;;;22.70;99.90;;;;;;5070920;28;20486;-72
2023/06/25 08:10:24;;;;;;;4.83;4.00;;;22.80;99.90;;;;;;5071338;28;20508;-72
2023/06/25 08:12:51;;;;;;;4.37;3.73;;;22.90;99.90;;;;;;5066610;28;20462;-72
2023/06/25 08:15:20;;;;;;;4.00;3.63;;;23.00;99.20;;;;;;5070780;28;20465;-73
2023/06/25 08:17:47;;;;;;;4.57;3.60;;;23.10;99.60;;;;;;5070892;28;20874;-73
2023/06/25 08:20:14;;;;;;;4.20;3.80;;;23.20;99.20;;;;;;5071381;28;20480;-72
2023/06/25 08:22:40;;;;;;;5.00;4.13;;;23.30;98.90;;;;;;5071050;28;20485;-73
2023/06/25 08:25:08;;;;;;;4.47;4.07;;;23.30;98.60;;;;;;5070353;28;20957;-73
2023/06/25 08:27:35;;;;;;;4.63;3.87;;;23.50;98.80;;;;;;5070965;28;20482;-73
2023/06/25 08:30:01;;;;;;;5.77;3.87;;;23.50;99.90;;;;;;5070852;28;20961;-73
2023/06/25 08:32:29;;;;;;;4.77;4.17;;;23.70;98.70;;;;;;5071108;28;20462;-72
2023/06/25 08:34:56;;;;;;;5.37;4.37;;;23.70;99.50;;;;;;5070488;28;20466;-73
2023/06/25 08:37:23;;;;;;;4.23;3.77;;;23.80;97.70;;;;;;5069080;28;20481;-73
2023/06/25 08:39:49;;;;;;;5.00;4.20;;;23.90;96.40;;;;;;5070955;28;20883;-73
2023/06/25 08:42:16;;;;;;;4.53;4.07;;;24.00;95.70;;;;;;5070796;28;20469;-73
2023/06/25 08:44:43;;;;;;;4.80;4.07;;;24.00;96.60;;;;;;5070329;28;20483;-73
2023/06/25 08:47:12;;;;;;;5.40;4.17;;;24.10;99.40;;;;;;5070361;28;20989;-73
2023/06/25 08:49:43;;;;;;;5.53;4.10;;;24.10;96.80;;;;;;5070687;28;20467;-73
2023/06/25 08:52:12;;;;;;;4.53;4.00;;;24.20;97.10;;;;;;5070702;28;20955;-73
2023/06/25 08:54:38;;;;;;;6.00;3.90;;;24.30;98.20;;;;;;5070309;28;20826;-73
2023/06/25 08:57:05;;;;;;;4.73;4.07;;;24.40;97.70;;;;;;5070079;28;20471;-73
2023/06/25 08:59:32;;;;;;;4.10;3.53;;;24.50;97.60;;;;;;5070455;28;20463;-73
2023/06/25 09:01:59;;;;;;;4.70;3.93;;;24.60;96.70;;;;;;5070374;28;20886;-73
2023/06/25 09:04:25;;;;;;;5.80;4.20;;;24.60;96.90;;;;;;5070131;28;20490;-74
2023/06/25 09:06:54;;;;;;;4.60;4.10;;;24.70;95.70;;;;;;5069837;28;20510;-73
2023/06/25 09:09:20;;;;;;;4.10;3.70;;;24.80;95.50;;;;;;5070149;28;20467;-72
2023/06/25 09:11:47;;;;;;;5.17;4.10;;;24.90;95.30;;;;;;5070330;28;20468;-73
2023/06/25 09:14:14;;;;;;;4.10;3.80;;;24.90;97.10;;;;;;5070321;28;20459;-73
2023/06/25 09:16:47;;;;;;;5.20;3.73;;;25.10;97.90;;;;;;5069714;28;20481;-73
2023/06/25 09:19:18;;;;;;;4.33;3.93;;;25.20;97.20;;;;;;5070427;28;20463;-73
2023/06/25 09:21:46;;;;;;;4.33;3.93;;;25.30;97.20;;;;;;5070146;28;20470;-72
2023/06/25 09:24:18;;;;;;;4.40;3.90;;;25.40;96.90;;;;;;5062280;28;20482;-73
2023/06/25 09:26:46;;;;;;;4.63;4.13;;;25.50;94.40;;;;;;5069547;28;20481;-73
2023/06/25 09:29:13;;;;;;;4.90;4.00;;;25.60;95.00;;;;;;5070250;28;20472;-73
2023/06/25 09:31:42;;;;;;;5.17;4.67;;;25.60;96.40;;;;;;5069904;28;20982;-73
2023/06/25 09:34:09;;;;;;;4.40;3.60;;;25.70;95.80;;;;;;5069990;28;20459;-73
2023/06/25 09:36:36;;;;;;;5.03;4.03;;;25.80;93.70;;;;;;5069397;28;20488;-73
2023/06/25 09:39:03;;;;;;;5.10;4.20;;;25.80;94.80;;;;;;5068717;28;20462;-73
2023/06/25 09:41:33;;;;;;;4.97;4.20;;;25.90;94.40;;;;;;5069485;28;20495;-73
2023/06/25 09:44:03;;;;;;;3.47;3.10;;;25.90;94.60;;;;;;5067000;28;20503;-73
2023/06/25 09:46:32;;;;;;;4.70;3.83;;;25.90;92.60;;;;;;5066284;28;20484;-72
2023/06/25 09:49:01;;;;;;;4.23;3.83;;;26.00;92.60;;;;;;5119130;23;20480;-94
2023/06/25 09:51:32;;;;;;;3.60;3.20;;;26.00;93.30;;;;;;5094413;28;20481;-92
2023/06/25 09:54:03;;;;;;;4.10;3.70;;;26.10;95.10;;;;;;5095039;28;20529;-93
2023/06/25 09:56:34;;;;;;;4.23;3.60;;;26.10;94.50;;;;;;5095640;28;20445;-94
2023/06/25 09:59:02;;;;;;;4.60;3.73;;;26.20;93.70;;;;;;5115075;28;20460;-94
2023/06/25 10:01:29;;;;;;;4.20;3.80;;;26.30;94.80;;;;;;5110322;28;20460;-92
2023/06/25 10:03:56;;;;;;;5.00;3.87;;;26.30;94.40;;;;;;5108547;28;20491;-95
2023/06/25 10:06:23;;;;;;;4.80;4.30;;;26.50;93.90;;;;;;5107860;28;20470;-94
2023/06/25 10:08:51;;;;;;;4.60;4.20;;;26.50;92.30;;;;;;5112907;28;20542;-95
2023/06/25 10:11:18;;;;;;;5.13;4.10;;;26.60;93.10;;;;;;5116269;28;20488;-95
2023/06/25 10:13:48;;;;;;;4.57;4.13;;;26.60;94.40;;;;;;5112928;28;20482;-95
2023/06/25 10:16:19;;;;;;;3.47;3.13;;;26.80;94.70;;;;;;5105809;28;20473;-95
2023/06/25 10:18:47;;;;;;;4.90;4.20;;;26.90;93.40;;;;;;5114295;28;20481;-95
2023/06/25 10:21:21;;;;;;;4.13;3.73;;;27.00;93.10;;;;;;5102555;28;20465;-96
2023/06/25 10:23:57;;;;;;;4.73;3.80;;;27.00;89.00;;;;;;5113431;28;20455;-94
2023/06/25 10:26:29;;;;;;;5.17;4.07;;;27.10;90.20;;;;;;5091193;28;20497;-95
2023/06/25 10:29:00;;;;;;;5.00;4.27;;;27.20;91.90;;;;;;5089900;28;20487;-95
2023/06/25 10:31:28;;;;;;;3.80;3.47;;;27.20;90.00;;;;;;5090077;28;20470;-95
2023/06/25 10:34:03;;;;;;;4.80;3.83;;;27.20;89.70;;;;;;5090422;28;20572;-94
2023/06/25 10:36:30;;;;;;;4.77;4.17;;;27.20;89.50;;;;;;5087160;28;20553;-94
2023/06/25 10:38:58;;;;;;;4.10;3.70;;;27.30;90.90;;;;;;5089931;28;20466;-94
2023/06/25 10:41:29;;;;;;;4.70;4.07;;;27.50;91.70;;;;;;5093221;28;20457;-96
2023/06/25 10:43:58;;;;;;;4.17;3.77;;;27.50;91.80;;;;;;5096150;28;20541;-93
2023/06/25 10:46:37;;;;;;;4.90;4.33;;;27.60;88.30;;;;;;5092553;28;20550;-93
2023/06/25 10:49:05;;;;;;;4.90;4.40;;;27.70;90.80;;;;;;5095450;28;20482;-94
2023/06/25 10:51:34;;;;;;;5.07;4.20;;;27.70;89.30;;;;;;5089192;28;20494;-94
2023/06/25 10:54:01;;;;;;;4.30;3.90;;;27.80;85.30;;;;;;5086581;28;20467;-93
2023/06/25 10:56:28;;;;;;;5.73;4.47;;;27.80;84.30;;;;;;5085839;28;20466;-93
2023/06/25 10:58:57;;;;;;;6.60;4.50;;;27.70;83.50;;;;;;5087092;28;20482;-94
2023/06/25 11:01:24;;;;;;;4.87;4.10;;;27.80;85.50;;;;;;5086811;28;20565;-93
2023/06/25 11:03:51;;;;;;;6.70;5.37;;;27.80;85.60;;;;;;5081545;28;20489;-93
2023/06/25 11:06:18;;;;;;;5.03;4.50;;;27.90;86.70;;;;;;5092835;28;20534;-93
2023/06/25 11:08:45;;;;;;;5.07;4.57;;;28.00;90.10;;;;;;5087051;28;20561;-93
2023/06/25 11:11:12;;;;;;;4.77;4.37;;;28.00;88.40;;;;;;5094202;28;20466;-93
2023/06/25 11:13:39;;;;;;;5.40;4.87;;;28.10;82.90;;;;;;5101340;28;20465;-93
2023/06/25 11:16:08;;;;;;;6.80;5.00;;;28.10;87.20;;;;;;5118290;28;20442;-96
2023/06/25 11:18:35;;;;;;;5.00;4.50;;;28.10;84.30;;;;;;5107360;28;20477;-93
2023/06/25 11:21:04;;;;;;;6.17;4.50;;;28.20;86.90;;;;;;5109199;28;21030;-95
2023/06/25 11:23:32;;;;;;;5.40;4.50;;;28.30;84.30;;;;;;5109084;28;20495;-94
2023/06/25 11:26:02;;;;;;;4.63;4.20;;;28.30;84.90;;;;;;5109585;28;20457;-94
2023/06/25 11:28:29;;;;;;;4.70;4.20;;;28.40;81.40;;;;;;5108290;28;20485;-93
2023/06/25 11:30:59;;;;;;;6.07;4.80;;;28.50;82.90;;;;;;5107381;28;20469;-93
2023/06/25 11:33:27;;;;;;;5.30;4.77;;;28.50;81.70;;;;;;5107560;28;20519;-93
2023/06/25 11:36:06;;;;;;;5.20;4.70;;;28.50;88.50;;;;;;5110177;28;20497;-94
2023/06/25 11:38:33;;;;;;;5.70;5.20;;;28.50;88.90;;;;;;5112668;28;20470;-94
2023/06/25 11:41:00;;;;;;;4.87;4.27;;;28.60;89.10;;;;;;5109721;28;20521;-94
2023/06/25 11:43:28;;;;;;;5.10;4.40;;;28.70;83.40;;;;;;5107191;28;20480;-94
2023/06/25 11:46:01;;;;;;;5.60;4.80;;;28.70;81.60;;;;;;5104265;28;20457;-93
2023/06/25 11:48:30;;;;;;;4.67;4.20;;;28.70;78.40;;;;;;5104814;28;20509;-93
2023/06/25 11:51:04;;;;;;;4.60;3.90;;;28.70;79.30;;;;;;5104240;28;20450;-93
2023/06/25 11:53:32;;;;;;;5.73;4.50;;;28.70;74.60;;;;;;5102665;28;20514;-94
2023/06/25 11:56:00;;;;;;;6.60;4.33;;;28.70;81.60;;;;;;5105637;28;20441;-92
2023/06/25 11:58:39;;;;;;;5.70;5.10;;;28.70;86.10;;;;;;5102652;28;21045;-93
2023/06/25 12:01:09;;;;;;;5.20;4.70;;;28.80;82.10;;;;;;5097787;28;20548;-92
2023/06/25 12:03:43;;;;;;;5.63;5.03;;;28.90;78.00;;;;;;5097682;28;20465;-93
2023/06/25 12:06:14;;;;;;;5.20;4.70;;;29.00;81.90;;;;;;5099940;28;20560;-92
2023/06/25 12:08:47;;;;;;;4.53;4.03;;;29.00;80.90;;;;;;5102468;28;20474;-93
2023/06/25 12:11:25;;;;;;;6.23;4.87;;;29.00;77.40;;;;;;5096819;28;20454;-93
2023/06/25 12:13:53;;;;;;;5.33;4.63;;;28.90;79.20;;;;;;5099132;28;20462;-93
2023/06/25 12:16:20;;;;;;;5.47;4.87;;;29.00;76.70;;;;;;5095084;28;20466;-92
2023/06/25 12:18:48;;;;;;;5.47;4.27;;;29.10;77.50;;;;;;5095647;28;20474;-92
2023/06/25 12:21:15;;;;;;;5.70;4.60;;;29.10;77.20;;;;;;5095030;28;20967;-93
2023/06/25 12:23:42;;;;;;;4.63;4.13;;;29.20;79.60;;;;;;5095193;28;20465;-92
2023/06/25 12:26:09;;;;;;;5.20;4.70;;;29.20;78.50;;;;;;5095037;28;20466;-93
2023/06/25 12:28:39;;;;;;;5.27;4.77;;;29.40;77.50;;;;;;5094979;28;21028;-92
2023/06/25 12:31:06;;;;;;;6.10;4.80;;;29.50;79.50;;;;;;5094880;28;20462;-91
2023/06/25 12:33:34;;;;;;;5.03;4.50;;;29.40;76.80;;;;;;5095328;28;20556;-93
2023/06/25 12:36:06;;;;;;;4.77;4.37;;;29.40;79.50;;;;;;5098119;28;20466;-93
2023/06/25 12:38:36;;;;;;;4.67;4.27;;;29.50;78.60;;;;;;5099325;28;20569;-91
2023/06/25 12:41:06;;;;;;;5.00;4.27;;;29.60;82.20;;;;;;5098869;28;20469;-92
2023/06/25 12:43:34;;;;;;;5.20;4.70;;;29.60;81.70;;;;;;5097578;28;20470;-91
2023/06/25 12:46:07;;;;;;;5.23;4.80;;;29.60;82.10;;;;;;5097093;28;20569;-94
2023/06/25 12:48:34;;;;;;;5.83;5.10;;;29.60;85.10;;;;;;5096489;28;20497;-92
2023/06/25 12:51:04;;;;;;;5.20;4.47;;;29.60;84.00;;;;;;5095816;28;20485;-92